createdAt,value
2023-04-12T00:00:12.593Z,96.57
2023-04-12T00:02:40.187Z,95.40
2023-04-12T00:05:09.513Z,95.70
2023-04-12T00:07:38.277Z,97.53
2023-04-12T00:10:07.850Z,91.72
2023-04-12T00:12:34.475Z,91.22
2023-04-12T00:15:01.434Z,95.18
2023-04-12T00:17:28.075Z,98.32
2023-04-12T00:19:54.693Z,91.72
2023-04-12T00:22:21.324Z,92.60
2023-04-12T00:24:47.950Z,91.55
2023-04-12T00:27:14.726Z,91.03
2023-04-12T00:29:42.384Z,98.05
2023-04-12T00:32:08.988Z,94.80
2023-04-12T00:34:35.557Z,98.15
2023-04-12T00:37:02.659Z,93.85
2023-04-12T00:39:29.325Z,95.35
2023-04-12T00:41:56.945Z,97.05
2023-04-12T00:44:24.009Z,94.03
2023-04-12T00:46:51.085Z,96.22
2023-04-12T00:49:17.988Z,91.35
2023-04-12T00:51:44.825Z,94.65
2023-04-12T00:54:13.624Z,92.03
2023-04-12T00:56:40.924Z,94.55
2023-04-12T00:59:08.523Z,92.00
2023-04-12T01:01:35.186Z,93.13
2023-04-12T01:04:05.028Z,95.60
2023-04-12T01:06:50.317Z,94.60
2023-04-12T01:09:39.479Z,95.45
2023-04-12T01:12:27.121Z,96.68
2023-04-12T01:15:07.483Z,95.32
2023-04-12T01:17:43.045Z,98.90
2023-04-12T01:20:16.568Z,99.10
2023-04-12T01:23:04.647Z,96.78
2023-04-12T01:25:40.475Z,95.10
2023-04-12T01:28:12.222Z,95.95
2023-04-12T01:30:41.062Z,96.13
2023-04-12T01:33:11.668Z,92.70
2023-04-12T01:35:39.825Z,90.82
2023-04-12T01:38:06.794Z,95.15
2023-04-12T01:40:33.583Z,94.45
2023-04-12T01:43:07.703Z,97.97
2023-04-12T01:45:34.540Z,93.00
2023-04-12T01:48:02.346Z,97.13
2023-04-12T01:51:08.773Z,94.65
2023-04-12T01:53:53.292Z,94.72
2023-04-12T01:56:22.240Z,97.05
2023-04-12T01:58:50.579Z,92.03
2023-04-12T02:01:19.081Z,104.10
2023-04-12T02:03:49.686Z,97.55
2023-04-12T02:06:21.279Z,95.65
2023-04-12T02:08:48.654Z,99.80
2023-04-12T02:11:15.297Z,95.20
2023-04-12T02:13:41.967Z,98.18
2023-04-12T02:16:10.581Z,93.57
2023-04-12T02:18:37.234Z,91.85
2023-04-12T02:21:03.961Z,99.28
2023-04-12T02:23:30.569Z,92.82
2023-04-12T02:25:57.211Z,95.68
2023-04-12T02:28:23.805Z,93.47
2023-04-12T02:30:53.556Z,92.07
2023-04-12T02:33:28.121Z,99.65
2023-04-12T02:35:57.169Z,99.75
2023-04-12T02:38:23.889Z,96.35
2023-04-12T02:40:50.571Z,93.38
2023-04-12T02:43:17.220Z,95.45
2023-04-12T02:45:43.955Z,95.32
2023-04-12T02:48:10.753Z,98.57
2023-04-12T02:50:37.755Z,100.45
2023-04-12T02:53:04.474Z,97.00
2023-04-12T02:55:31.096Z,94.00
2023-04-12T02:57:58.470Z,102.13
2023-04-12T03:00:25.221Z,107.35
2023-04-12T03:02:52.414Z,98.50
2023-04-12T03:05:19.328Z,97.43
2023-04-12T03:07:46.347Z,97.85
2023-04-12T03:10:13.244Z,97.65
2023-04-12T03:12:40.198Z,96.82
2023-04-12T03:15:07.557Z,97.25
2023-04-12T03:17:34.217Z,100.55
2023-04-12T03:20:09.579Z,95.75
2023-04-12T03:22:37.247Z,95.60
2023-04-12T03:25:05.203Z,96.88
2023-04-12T03:27:32.000Z,93.80
2023-04-12T03:29:58.613Z,96.15
2023-04-12T03:32:25.662Z,95.45
2023-04-12T03:34:52.369Z,95.03
2023-04-12T03:37:19.636Z,99.38
2023-04-12T03:39:48.204Z,97.25
2023-04-12T03:42:29.452Z,97.43
2023-04-12T03:44:58.818Z,95.18
2023-04-12T03:47:25.575Z,96.32
2023-04-12T03:50:10.242Z,94.93
2023-04-12T03:52:38.231Z,95.43
2023-04-12T03:55:07.284Z,94.35
2023-04-12T03:57:34.211Z,95.40
2023-04-12T04:00:00.822Z,99.88
2023-04-12T04:02:27.933Z,99.53
2023-04-12T04:04:55.123Z,96.07
2023-04-12T04:07:22.188Z,100.88
2023-04-12T04:09:49.920Z,98.63
2023-04-12T04:12:16.761Z,104.10
2023-04-12T04:14:43.650Z,99.00
2023-04-12T04:17:10.463Z,100.15
2023-04-12T04:19:37.084Z,97.90
2023-04-12T04:22:04.684Z,96.53
2023-04-12T04:24:31.355Z,98.35
2023-04-12T04:26:58.802Z,97.38
2023-04-12T04:29:26.165Z,95.57
2023-04-12T04:31:53.825Z,98.20
2023-04-12T04:34:22.087Z,92.78
2023-04-12T04:36:49.056Z,95.65
2023-04-12T04:39:15.743Z,94.32
2023-04-12T04:41:42.525Z,93.88
2023-04-12T04:44:09.376Z,99.75
2023-04-12T04:46:37.803Z,97.50
2023-04-12T04:49:05.309Z,92.88
2023-04-12T04:51:32.135Z,93.47
2023-04-12T04:53:59.136Z,93.68
2023-04-12T04:56:26.177Z,96.30
2023-04-12T04:58:54.096Z,95.55
2023-04-12T05:01:25.966Z,91.78
2023-04-12T05:03:52.794Z,95.07
2023-04-12T05:06:19.519Z,92.82
2023-04-12T05:08:46.169Z,90.80
2023-04-12T05:11:12.790Z,95.38
2023-04-12T05:13:39.426Z,95.65
2023-04-12T05:16:07.982Z,91.88
2023-04-12T05:18:34.912Z,90.68
2023-04-12T05:21:05.421Z,91.70
2023-04-12T05:23:43.185Z,91.57
2023-04-12T05:26:09.795Z,104.28
2023-04-12T05:28:36.653Z,91.88
2023-04-12T05:31:03.924Z,92.13
2023-04-12T05:33:33.270Z,92.53
2023-04-12T05:36:00.497Z,102.85
2023-04-12T05:38:27.190Z,91.25
2023-04-12T05:40:54.156Z,93.45
2023-04-12T05:43:20.854Z,93.03
2023-04-12T05:45:47.569Z,91.72
2023-04-12T05:48:14.524Z,90.72
2023-04-12T05:50:41.196Z,96.65
2023-04-12T05:53:08.463Z,96.28
2023-04-12T05:55:37.283Z,93.82
2023-04-12T05:58:04.634Z,92.22
2023-04-12T06:00:31.876Z,91.72
2023-04-12T06:02:58.840Z,90.22
2023-04-12T06:05:25.684Z,92.15
2023-04-12T06:07:52.446Z,94.82
2023-04-12T06:10:19.329Z,91.13
2023-04-12T06:12:45.948Z,91.55
2023-04-12T06:15:12.622Z,91.75
2023-04-12T06:17:39.461Z,94.30
2023-04-12T06:20:10.139Z,93.15
2023-04-12T06:22:37.803Z,91.32
2023-04-12T06:25:05.245Z,92.15
2023-04-12T06:27:31.950Z,92.55
2023-04-12T06:29:59.412Z,91.22
2023-04-12T06:32:26.234Z,91.70
2023-04-12T06:34:53.921Z,90.38
2023-04-12T06:37:21.767Z,94.03
2023-04-12T06:39:48.461Z,91.25
2023-04-12T06:42:15.678Z,91.13
2023-04-12T06:44:42.353Z,90.22
2023-04-12T06:47:09.520Z,96.53
2023-04-12T06:49:36.378Z,90.05
2023-04-12T06:52:03.039Z,92.75
2023-04-12T06:54:29.696Z,91.18
2023-04-12T06:56:57.333Z,89.93
2023-04-12T06:59:24.084Z,94.25
2023-04-12T07:01:50.808Z,94.85
2023-04-12T07:04:17.587Z,91.75
2023-04-12T07:06:44.374Z,94.00
2023-04-12T07:09:11.083Z,93.15
2023-04-12T07:11:37.736Z,90.50
2023-04-12T07:14:04.473Z,90.93
2023-04-12T07:16:32.605Z,91.60
2023-04-12T07:19:00.215Z,92.85
2023-04-12T07:21:27.604Z,91.97
2023-04-12T07:23:54.801Z,90.97
2023-04-12T07:26:21.765Z,90.65
2023-04-12T07:28:48.690Z,92.45
2023-04-12T07:31:15.813Z,94.10
2023-04-12T07:33:43.424Z,91.07
2023-04-12T07:36:11.605Z,92.38
2023-04-12T07:38:38.337Z,91.07
2023-04-12T07:41:05.341Z,91.22
2023-04-12T07:43:32.057Z,96.55
2023-04-12T07:45:59.291Z,90.32
2023-04-12T07:48:26.316Z,94.38
2023-04-12T07:50:52.977Z,92.50
2023-04-12T07:53:25.273Z,94.78
2023-04-12T07:55:52.220Z,96.80
2023-04-12T07:58:19.897Z,91.07
2023-04-12T08:00:47.119Z,90.97
2023-04-12T08:03:15.033Z,92.07
2023-04-12T08:05:42.208Z,100.88
2023-04-12T08:08:12.097Z,95.85
2023-04-12T08:10:40.778Z,92.10
2023-04-12T08:13:07.806Z,91.90
2023-04-12T08:15:34.688Z,92.55
2023-04-12T08:18:02.459Z,90.82
2023-04-12T08:20:29.419Z,90.75
2023-04-12T08:22:56.403Z,93.35
2023-04-12T08:25:23.232Z,92.60
2023-04-12T08:27:51.202Z,93.05
2023-04-12T08:30:18.736Z,95.47
2023-04-12T08:32:45.674Z,93.72
2023-04-12T08:35:12.567Z,90.35
2023-04-12T08:37:39.229Z,93.07
2023-04-12T08:40:09.328Z,94.53
2023-04-12T08:42:37.369Z,97.00
2023-04-12T08:45:11.987Z,94.55
2023-04-12T08:47:43.966Z,92.25
2023-04-12T08:50:17.228Z,98.07
2023-04-12T08:52:43.893Z,91.28
2023-04-12T08:55:11.302Z,91.80
2023-04-12T08:57:41.080Z,92.45
2023-04-12T09:00:09.239Z,90.32
2023-04-12T09:02:38.028Z,93.43
2023-04-12T09:05:06.525Z,91.65
2023-04-12T09:07:34.018Z,95.10
2023-04-12T09:10:01.028Z,92.40
2023-04-12T09:12:27.800Z,95.90
2023-04-12T09:15:11.900Z,94.90
2023-04-12T09:17:40.472Z,92.32
2023-04-12T09:20:16.159Z,92.30
2023-04-12T09:22:47.530Z,91.88
2023-04-12T09:25:15.624Z,94.03
2023-04-12T09:27:49.686Z,91.70
2023-04-12T09:30:18.127Z,91.72
2023-04-12T09:32:45.663Z,90.28
2023-04-12T09:35:12.441Z,90.95
2023-04-12T09:37:39.582Z,93.32
2023-04-12T09:40:08.939Z,91.45
2023-04-12T09:42:37.136Z,95.90
2023-04-12T09:45:24.365Z,93.75
2023-04-12T09:47:51.633Z,97.50
2023-04-12T09:50:26.508Z,92.45
2023-04-12T09:52:54.865Z,96.38
2023-04-12T09:55:23.389Z,94.70
2023-04-12T09:57:51.880Z,93.07
2023-04-12T10:00:20.177Z,93.88
2023-04-12T10:02:52.766Z,93.97
2023-04-12T10:05:22.358Z,103.57
2023-04-12T10:07:49.960Z,96.90
2023-04-12T10:10:18.443Z,91.68
2023-04-12T10:12:47.359Z,91.45
2023-04-12T10:15:17.845Z,93.10
2023-04-12T10:17:47.442Z,96.60
2023-04-12T10:20:16.846Z,94.72
2023-04-12T10:22:48.888Z,92.10
2023-04-12T10:25:20.870Z,92.32
2023-04-12T10:27:48.756Z,97.25
2023-04-12T10:30:31.079Z,93.50
2023-04-12T10:33:06.510Z,96.00
2023-04-12T10:35:48.269Z,93.50
2023-04-12T10:38:15.720Z,96.57
2023-04-12T10:41:13.463Z,93.72
2023-04-12T10:43:44.996Z,93.70
2023-04-12T10:46:40.131Z,92.28
2023-04-12T10:49:12.034Z,97.82
2023-04-12T10:51:39.224Z,99.75
2023-04-12T10:54:09.510Z,95.00
2023-04-12T10:56:38.295Z,97.70
2023-04-12T10:59:09.760Z,93.97
2023-04-12T11:01:38.987Z,95.18
2023-04-12T11:04:21.002Z,94.32
2023-04-12T11:06:53.063Z,95.95
2023-04-12T11:09:27.603Z,93.22
2023-04-12T11:11:58.861Z,93.63
2023-04-12T11:14:29.923Z,94.72
2023-04-12T11:17:06.192Z,91.38
2023-04-12T11:19:37.372Z,92.28
2023-04-12T11:22:05.312Z,96.05
2023-04-12T11:24:32.123Z,94.80
2023-04-12T11:26:59.826Z,92.85
2023-04-12T11:29:32.337Z,94.35
2023-04-12T11:31:59.225Z,97.25
2023-04-12T11:34:25.934Z,92.88
2023-04-12T11:36:53.605Z,90.28
2023-04-12T11:39:21.238Z,92.60
2023-04-12T11:41:49.091Z,91.70
2023-04-12T11:44:18.960Z,94.97
2023-04-12T11:46:46.427Z,93.57
2023-04-12T11:49:19.941Z,91.90
2023-04-12T11:51:49.474Z,92.30
2023-04-12T11:54:16.460Z,92.30
2023-04-12T11:56:43.154Z,90.65
2023-04-12T11:59:09.776Z,91.28
2023-04-12T12:01:37.742Z,92.85
2023-04-12T12:04:05.578Z,93.60
2023-04-12T12:06:32.953Z,93.40
2023-04-12T12:09:00.529Z,94.90
2023-04-12T12:11:27.457Z,100.32
2023-04-12T12:13:55.369Z,89.82
2023-04-12T12:16:28.151Z,90.80
2023-04-12T12:18:56.314Z,91.00
2023-04-12T12:21:23.188Z,88.78
2023-04-12T12:23:50.196Z,90.15
2023-04-12T12:26:25.540Z,91.50
2023-04-12T12:28:54.968Z,96.78
2023-04-12T12:31:28.341Z,89.35
2023-04-12T12:34:00.982Z,96.60
2023-04-12T12:36:35.000Z,89.55
2023-04-12T12:39:10.414Z,92.22
2023-04-12T12:41:37.720Z,91.80
2023-04-12T12:44:04.399Z,91.90
2023-04-12T12:46:44.538Z,92.55
2023-04-12T12:49:18.566Z,90.97
2023-04-12T12:51:45.538Z,89.60
2023-04-12T12:54:12.253Z,90.07
2023-04-12T12:56:38.941Z,90.50
2023-04-12T12:59:05.575Z,91.38
2023-04-12T13:01:32.362Z,90.43
2023-04-12T13:03:59.489Z,92.88
2023-04-12T13:06:28.048Z,98.47
2023-04-12T13:08:55.474Z,91.43
2023-04-12T13:11:22.239Z,93.00
2023-04-12T13:13:48.922Z,92.03
2023-04-12T13:16:16.071Z,93.35
2023-04-12T13:18:43.178Z,91.75
2023-04-12T13:21:09.852Z,90.93
2023-04-12T13:23:36.489Z,93.28
2023-04-12T13:26:03.252Z,95.53
2023-04-12T13:28:29.929Z,92.05
2023-04-12T13:30:56.574Z,92.38
2023-04-12T13:33:23.291Z,90.60
2023-04-12T13:35:50.004Z,90.57
2023-04-12T13:38:16.625Z,92.90
2023-04-12T13:40:43.218Z,92.28
2023-04-12T13:43:09.880Z,91.10
2023-04-12T13:45:36.680Z,95.32
2023-04-12T13:48:03.644Z,90.60
2023-04-12T13:50:30.330Z,90.63
2023-04-12T13:52:56.925Z,90.60
2023-04-12T13:55:23.559Z,91.70
2023-04-12T13:57:50.188Z,92.47
2023-04-12T14:00:17.551Z,90.70
2023-04-12T14:02:44.316Z,90.75
2023-04-12T14:05:11.936Z,90.13
2023-04-12T14:07:38.711Z,92.18
2023-04-12T14:10:05.892Z,90.60
2023-04-12T14:12:32.526Z,92.00
2023-04-12T14:14:59.175Z,92.65
2023-04-12T14:17:26.173Z,92.35
2023-04-12T14:19:52.896Z,89.38
2023-04-12T14:22:19.522Z,92.15
2023-04-12T14:24:46.272Z,89.80
2023-04-12T14:27:13.054Z,89.88
2023-04-12T14:29:39.916Z,90.20
2023-04-12T14:32:06.587Z,92.55
2023-04-12T14:34:33.934Z,88.95
2023-04-12T14:37:00.638Z,88.03
2023-04-12T14:39:27.736Z,89.43
2023-04-12T14:41:54.535Z,88.65
2023-04-12T14:44:23.010Z,88.13
2023-04-12T14:46:51.551Z,93.00
2023-04-12T14:49:18.473Z,88.10
2023-04-12T14:51:45.722Z,87.75
2023-04-12T14:54:12.354Z,87.65
2023-04-12T14:56:46.341Z,88.80
2023-04-12T14:59:16.336Z,89.45
2023-04-12T15:01:43.998Z,89.32
2023-04-12T15:04:11.304Z,89.57
2023-04-12T15:06:42.382Z,88.25
2023-04-12T15:09:09.813Z,88.82
2023-04-12T15:11:36.661Z,88.85
2023-04-12T15:14:08.641Z,88.25
2023-04-12T15:16:35.340Z,87.82
2023-04-12T15:19:06.656Z,87.75
2023-04-12T15:21:36.644Z,87.28
2023-04-12T15:24:03.289Z,86.95
2023-04-12T15:26:29.950Z,87.05
2023-04-12T15:28:56.837Z,87.18
2023-04-12T15:31:23.626Z,87.35
2023-04-12T15:33:50.503Z,86.53
2023-04-12T15:36:18.889Z,87.18
2023-04-12T15:38:45.839Z,86.38
2023-04-12T15:41:12.475Z,86.85
2023-04-12T15:43:39.125Z,86.63
2023-04-12T15:46:06.317Z,86.38
2023-04-12T15:48:32.964Z,87.22
2023-04-12T15:50:59.615Z,88.18
2023-04-12T15:53:29.618Z,87.07
2023-04-12T15:55:56.335Z,86.50
2023-04-12T15:58:24.249Z,86.45
2023-04-12T16:00:52.943Z,86.72
2023-04-12T16:03:23.084Z,86.53
2023-04-12T16:05:53.265Z,86.88
2023-04-12T16:08:23.232Z,86.88
2023-04-12T16:10:50.900Z,86.28
2023-04-12T16:13:18.280Z,86.82
2023-04-12T16:15:45.565Z,87.43
2023-04-12T16:18:12.676Z,86.38
2023-04-12T16:20:40.846Z,86.40
2023-04-12T16:23:07.977Z,88.68
2023-04-12T16:25:35.850Z,87.22
2023-04-12T16:28:02.729Z,87.60
2023-04-12T16:30:31.485Z,86.63
2023-04-12T16:32:58.337Z,87.80
2023-04-12T16:35:25.102Z,86.85
2023-04-12T16:37:52.216Z,87.63
2023-04-12T16:40:19.025Z,87.22
2023-04-12T16:42:45.801Z,87.35
2023-04-12T16:45:14.872Z,86.68
2023-04-12T16:47:41.875Z,86.97
2023-04-12T16:50:09.387Z,86.88
2023-04-12T16:52:36.833Z,87.82
2023-04-12T16:55:04.642Z,87.13
2023-04-12T16:57:31.479Z,86.72
2023-04-12T16:59:58.302Z,86.65
2023-04-12T17:02:25.993Z,86.78
2023-04-12T17:04:52.966Z,86.72
2023-04-12T17:07:19.662Z,91.20
2023-04-12T17:09:46.321Z,90.85
2023-04-12T17:12:13.045Z,87.45
2023-04-12T17:14:39.800Z,87.13
2023-04-12T17:17:06.820Z,88.43
2023-04-12T17:19:33.718Z,87.25
2023-04-12T17:22:00.534Z,87.43
2023-04-12T17:24:28.564Z,88.40
2023-04-12T17:26:55.277Z,88.50
2023-04-12T17:29:22.370Z,87.22
2023-04-12T17:31:50.712Z,87.53
2023-04-12T17:34:19.926Z,86.78
2023-04-12T17:36:46.901Z,89.55
2023-04-12T17:39:13.573Z,89.80
2023-04-12T17:41:41.099Z,88.88
2023-04-12T17:44:07.908Z,87.68
2023-04-12T17:46:35.504Z,87.47
2023-04-12T17:49:05.410Z,88.38
2023-04-12T17:51:33.063Z,87.93
2023-04-12T17:54:00.638Z,87.30
2023-04-12T17:56:27.591Z,87.63
2023-04-12T17:58:55.104Z,87.63
2023-04-12T18:01:22.245Z,90.15
2023-04-12T18:03:49.471Z,88.57
2023-04-12T18:06:18.620Z,89.95
2023-04-12T18:08:46.896Z,88.25
2023-04-12T18:11:13.669Z,87.88
2023-04-12T18:13:40.341Z,88.32
2023-04-12T18:16:07.167Z,88.43
2023-04-12T18:18:34.105Z,88.22
2023-04-12T18:21:06.246Z,87.90
2023-04-12T18:23:33.030Z,88.03
2023-04-12T18:25:59.673Z,88.43
2023-04-12T18:28:26.462Z,88.93
2023-04-12T18:30:54.938Z,89.13
2023-04-12T18:33:22.801Z,88.82
2023-04-12T18:35:51.095Z,88.85
2023-04-12T18:38:18.624Z,89.38
2023-04-12T18:40:45.352Z,88.65
2023-04-12T18:43:12.017Z,87.78
2023-04-12T18:45:40.465Z,90.55
2023-04-12T18:48:08.556Z,91.88
2023-04-12T18:50:41.124Z,89.85
2023-04-12T18:53:08.095Z,88.72
2023-04-12T18:55:34.778Z,89.25
2023-04-12T18:58:01.746Z,88.97
2023-04-12T19:00:28.835Z,90.30
2023-04-12T19:02:55.747Z,88.18
2023-04-12T19:05:22.835Z,89.25
2023-04-12T19:07:50.677Z,89.97
2023-04-12T19:10:17.517Z,88.95
2023-04-12T19:12:44.620Z,88.93
2023-04-12T19:15:11.744Z,88.93
2023-04-12T19:17:39.354Z,88.53
2023-04-12T19:20:09.032Z,89.22
2023-04-12T19:22:36.301Z,92.03
2023-04-12T19:25:03.028Z,88.28
2023-04-12T19:27:29.716Z,88.60
2023-04-12T19:29:56.372Z,89.78
2023-04-12T19:32:23.113Z,90.50
2023-04-12T19:34:49.925Z,88.97
2023-04-12T19:37:17.002Z,89.43
2023-04-12T19:39:43.635Z,88.28
2023-04-12T19:42:10.388Z,89.88
2023-04-12T19:44:39.018Z,88.38
2023-04-12T19:47:07.113Z,89.22
2023-04-12T19:49:34.847Z,89.75
2023-04-12T19:52:05.275Z,89.65
2023-04-12T19:54:32.643Z,89.43
2023-04-12T19:56:59.295Z,89.53
2023-04-12T19:59:30.689Z,89.03
2023-04-12T20:01:58.618Z,88.93
2023-04-12T20:04:26.080Z,89.07
2023-04-12T20:06:53.262Z,89.75
2023-04-12T20:09:22.400Z,89.22
2023-04-12T20:11:49.360Z,91.15
2023-04-12T20:14:16.399Z,89.75
2023-04-12T20:16:43.715Z,89.30
2023-04-12T20:19:11.031Z,91.18
2023-04-12T20:21:38.908Z,90.38
2023-04-12T20:24:09.065Z,89.72
2023-04-12T20:26:36.363Z,89.57
2023-04-12T20:29:07.910Z,92.95
2023-04-12T20:31:34.764Z,91.70
2023-04-12T20:34:01.446Z,90.72
2023-04-12T20:36:29.559Z,89.85
2023-04-12T20:38:56.339Z,93.05
2023-04-12T20:41:23.829Z,90.53
2023-04-12T20:43:50.833Z,91.88
2023-04-12T20:46:20.579Z,90.45
2023-04-12T20:48:50.154Z,90.88
2023-04-12T20:51:20.933Z,90.78
2023-04-12T20:53:48.012Z,91.30
2023-04-12T20:56:15.209Z,91.60
2023-04-12T20:58:41.929Z,90.78
2023-04-12T21:01:14.611Z,90.22
2023-04-12T21:03:43.304Z,90.75
2023-04-12T21:06:10.696Z,90.53
2023-04-12T21:08:38.750Z,90.28
2023-04-12T21:11:06.051Z,90.95
2023-04-12T21:13:34.285Z,89.60
2023-04-12T21:16:02.678Z,90.45
2023-04-12T21:18:32.129Z,89.93
2023-04-12T21:20:59.773Z,91.15
2023-04-12T21:23:27.935Z,90.47
2023-04-12T21:25:54.654Z,90.82
2023-04-12T21:28:22.841Z,91.53
2023-04-12T21:30:54.858Z,93.88
2023-04-12T21:33:25.028Z,90.63
2023-04-12T21:35:54.348Z,91.55
2023-04-12T21:38:22.402Z,92.13
2023-04-12T21:40:49.555Z,92.72
2023-04-12T21:43:16.326Z,91.93
2023-04-12T21:45:43.119Z,91.18
2023-04-12T21:48:09.911Z,91.22
2023-04-12T21:50:37.617Z,90.53
2023-04-12T21:53:04.301Z,91.35
2023-04-12T21:55:30.970Z,93.55
2023-04-12T21:57:57.603Z,91.18
2023-04-12T22:00:27.061Z,89.85
2023-04-12T22:02:53.899Z,91.32
2023-04-12T22:05:20.884Z,93.95
2023-04-12T22:07:47.616Z,90.32
2023-04-12T22:10:14.881Z,91.18
2023-04-12T22:12:42.208Z,90.57
2023-04-12T22:15:11.470Z,91.72
2023-04-12T22:17:38.809Z,91.57
2023-04-12T22:20:08.296Z,90.82
2023-04-12T22:22:37.118Z,90.47
2023-04-12T22:25:04.907Z,92.25
2023-04-12T22:27:31.732Z,90.68
2023-04-12T22:29:58.488Z,89.90
2023-04-12T22:32:25.174Z,91.32
2023-04-12T22:35:04.970Z,89.60
2023-04-12T22:37:35.354Z,91.65
2023-04-12T22:40:02.382Z,91.22
2023-04-12T22:42:29.940Z,89.97
2023-04-12T22:45:00.088Z,90.88
2023-04-12T22:47:27.967Z,90.88
2023-04-12T22:50:01.297Z,90.13
2023-04-12T22:52:31.148Z,90.65
2023-04-12T22:54:57.814Z,91.57
2023-04-12T22:57:25.510Z,92.25
2023-04-12T22:59:53.570Z,90.38
2023-04-12T23:02:20.425Z,93.07
2023-04-12T23:04:49.098Z,90.78
2023-04-12T23:07:16.379Z,92.13
2023-04-12T23:09:45.088Z,91.28
2023-04-12T23:12:12.548Z,90.78
2023-04-12T23:14:39.958Z,90.53
2023-04-12T23:17:07.298Z,90.63
2023-04-12T23:19:34.500Z,91.30
2023-04-12T23:22:01.186Z,91.93
2023-04-12T23:24:28.451Z,90.85
2023-04-12T23:26:57.715Z,91.03
2023-04-12T23:29:25.653Z,91.38
2023-04-12T23:31:52.574Z,90.82
2023-04-12T23:34:21.858Z,91.13
2023-04-12T23:36:51.018Z,91.20
2023-04-12T23:39:18.185Z,90.80
2023-04-12T23:41:46.563Z,90.57
2023-04-12T23:44:13.658Z,90.18
2023-04-12T23:46:40.532Z,90.38
2023-04-12T23:49:07.171Z,92.20
2023-04-12T23:51:33.806Z,89.45
2023-04-12T23:54:00.700Z,90.88
2023-04-12T23:56:27.730Z,89.88
2023-04-12T23:58:54.408Z,90.68
